Toyota, Japan
Current Conditions -  °F | °C
As of 11:00 AM on Monday 22 Dec 2014 (Local Time) from RJGG Reporting Station
Few Clouds Few Clouds  
Wind Chill: 34°   Ceiling: Unl
Heat Index: 43°   Visibility: 6mi
Dew Point: 25°   Wind: 23mph
Humidity: 49%   Direction: 280°W
Pressure: 30"   Gusts: NA
Location:  35.09°N, 137.16°E
Report Text: RJGG 220200Z 28020KT 9999 FEW030 06/M04 Q1016 NOSIG
Loading
Personal Weather Stations






























Interactive Weather Map New forecast layout! Learn more

10-Day Weather Forecast

Advertisements
Track Severe Weather on mobile